Pagina principale
Immagini satellite Previsioni 10 giorniClimaMeteomar Cicloni Fulmine AeroportiFAQ Bollettino Informazioni
Tempo : Europa Africa America settentrionale America meridionale Asia Australia-Oceania Altri
Lingue Contatto

Genova, Italia

Aeroporto di Genova-Sestri

latitudine: 44-25N, longitudine: 008-51E, altezza: 2 m


METAR: LIMJ 060450Z 27004KT 250V310 9999 FEW022 SCT030 BKN070 18/15 Q1013
TAF: LIMJ 052300Z 0600/0624 19008KT 9999 SCT070

Ora: 07:22 (05:22 UTC)

Osservazione

Il bollettino è stato emesso 32 minuti fa, alle 04:50 UTC
Vento 4 kt da ovest, variando fra ovest/sud-ovest e nord-ovest
Temperature 18°C
Umidità 83%
Pressione 1013 hPa
Visibilità 10 km o più
Poco nuvoloso ad un'altezza di 2200 ft
Nubi sparse ad un'altezza di 3000 ft
Nuvoloso ad un'altezza di 7000 ft

Cambiare le unità

Previsione

Il bollettino è stato emesso 6 ore e 22 minuti fa, alle 23:00 UTC
Previsione valida dal 06 alle 00 UTC al 06 alle 24 UTC
Vento 8 kt da sud
Visibilità 10 km o più
Nubi sparse ad un'altezza di 7000 ft
Le informazioni contenute in questo sito formano oggetto di una clausola di esclusione di responsabilità
Tempo : Europa Africa America settentrionale America meridionale Asia Australia-Oceania Altri
Immagini satellite Previsioni 10 giorniClimaMeteomar Cicloni Fulmine AeroportiFAQ Lingue Contatto Bollettino Informazioni